sensor_id;sensor_type;location;lat;lon;timestamp;pressure;altitude;pressure_sealevel;temperature;humidity
6899;BME280;3488;42.616;23.350;2023-09-08T00:02:03;63945.63;;;18.79;100.00
6899;BME280;3488;42.616;23.350;2023-09-08T00:04:30;63946.16;;;18.82;100.00
6899;BME280;3488;42.616;23.350;2023-09-08T00:06:58;63940.41;;;18.74;100.00
6899;BME280;3488;42.616;23.350;2023-09-08T00:09:25;63932.13;;;18.71;100.00
6899;BME280;3488;42.616;23.350;2023-09-08T00:11:53;63933.13;;;18.67;97.27
6899;BME280;3488;42.616;23.350;2023-09-08T00:14:20;63921.69;;;18.58;96.69
6899;BME280;3488;42.616;23.350;2023-09-08T00:16:47;63923.28;;;18.65;96.19
6899;BME280;3488;42.616;23.350;2023-09-08T00:19:14;63915.97;;;18.55;95.61
6899;BME280;3488;42.616;23.350;2023-09-08T00:21:41;63907.63;;;18.47;94.28
6899;BME280;3488;42.616;23.350;2023-09-08T00:24:08;63905.53;;;18.42;94.64
6899;BME280;3488;42.616;23.350;2023-09-08T00:26:36;63902.41;;;18.42;94.08
6899;BME280;3488;42.616;23.350;2023-09-08T00:29:04;63913.84;;;18.51;91.60
6899;BME280;3488;42.616;23.350;2023-09-08T00:31:30;63902.91;;;18.40;90.40
6899;BME280;3488;42.616;23.350;2023-09-08T00:33:58;63902.88;;;18.37;89.71
6899;BME280;3488;42.616;23.350;2023-09-08T00:36:25;63895.63;;;18.35;87.93
6899;BME280;3488;42.616;23.350;2023-09-08T00:38:52;63903.97;;;18.43;86.14
6899;BME280;3488;42.616;23.350;2023-09-08T00:41:19;63906.06;;;18.46;85.14
6899;BME280;3488;42.616;23.350;2023-09-08T00:43:46;63909.19;;;18.49;83.04
6899;BME280;3488;42.616;23.350;2023-09-08T00:46:14;63921.66;;;18.56;82.86
6899;BME280;3488;42.616;23.350;2023-09-08T00:48:41;63915.97;;;18.55;81.86
6899;BME280;3488;42.616;23.350;2023-09-08T00:51:09;63911.81;;;18.54;81.37
6899;BME280;3488;42.616;23.350;2023-09-08T00:53:36;63918.03;;;18.55;81.27
6899;BME280;3488;42.616;23.350;2023-09-08T00:56:04;63916.47;;;18.53;81.62
6899;BME280;3488;42.616;23.350;2023-09-08T00:58:31;63909.72;;;18.49;82.09
6899;BME280;3488;42.616;23.350;2023-09-08T01:00:58;63921.66;;;18.56;81.70
6899;BME280;3488;42.616;23.350;2023-09-08T01:03:26;63921.19;;;18.60;81.29
6899;BME280;3488;42.616;23.350;2023-09-08T01:05:54;63923.78;;;18.63;81.77
6899;BME280;3488;42.616;23.350;2023-09-08T01:08:21;63921.69;;;18.61;81.85
6899;BME280;3488;42.616;23.350;2023-09-08T01:10:49;63931.56;;;18.65;82.22
6899;BME280;3488;42.616;23.350;2023-09-08T01:13:16;63926.88;;;18.63;82.97
6899;BME280;3488;42.616;23.350;2023-09-08T01:15:42;63930.50;;;18.64;83.47
6899;BME280;3488;42.616;23.350;2023-09-08T01:18:09;63934.16;;;18.68;83.53
6899;BME280;3488;42.616;23.350;2023-09-08T01:21:03;63927.91;;;18.64;83.45
6899;BME280;3488;42.616;23.350;2023-09-08T01:23:43;63922.75;;;18.64;84.05
6899;BME280;3488;42.616;23.350;2023-09-08T01:26:20;63936.22;;;18.67;84.76
6899;BME280;3488;42.616;23.350;2023-09-08T01:28:49;63925.84;;;18.62;85.61
6899;BME280;3488;42.616;23.350;2023-09-08T01:31:16;63933.66;;;18.70;85.11
6899;BME280;3488;42.616;23.350;2023-09-08T01:33:44;63935.75;;;18.72;86.68
6899;BME280;3488;42.616;23.350;2023-09-08T01:36:12;63941.47;;;18.77;84.92
6899;BME280;3488;42.616;23.350;2023-09-08T01:38:40;63933.66;;;18.70;86.89
6899;BME280;3488;42.616;23.350;2023-09-08T01:41:07;63931.59;;;18.70;87.46
6899;BME280;3488;42.616;23.350;2023-09-08T01:43:36;63939.94;;;18.78;87.21
6899;BME280;3488;42.616;23.350;2023-09-08T01:46:03;63936.28;;;18.72;87.03
6899;BME280;3488;42.616;23.350;2023-09-08T01:48:30;63920.16;;;18.62;87.96
6899;BME280;3488;42.616;23.350;2023-09-08T01:50:57;63921.13;;;18.55;89.00
6899;BME280;3488;42.616;23.350;2023-09-08T01:53:24;63920.13;;;18.59;89.04
6899;BME280;3488;42.616;23.350;2023-09-08T01:55:51;63931.06;;;18.67;89.51
6899;BME280;3488;42.616;23.350;2023-09-08T01:58:17;63921.63;;;18.53;88.85
6899;BME280;3488;42.616;23.350;2023-09-08T02:00:49;63919.59;;;18.56;89.17
6899;BME280;3488;42.616;23.350;2023-09-08T02:03:16;63926.34;;;18.60;89.78
6899;BME280;3488;42.616;23.350;2023-09-08T02:05:44;63923.25;;;18.62;90.95
6899;BME280;3488;42.616;23.350;2023-09-08T02:08:11;63916.00;;;18.58;91.52
6899;BME280;3488;42.616;23.350;2023-09-08T02:10:39;63927.41;;;18.64;92.29
6899;BME280;3488;42.616;23.350;2023-09-08T02:13:06;63932.09;;;18.68;92.01
6899;BME280;3488;42.616;23.350;2023-09-08T02:15:35;63936.25;;;18.70;93.27
6899;BME280;3488;42.616;23.350;2023-09-08T02:18:03;63912.78;;;18.47;97.94
6899;BME280;3488;42.616;23.350;2023-09-08T02:20:31;63895.09;;;18.35;100.00
6899;BME280;3488;42.616;23.350;2023-09-08T02:23:03;63892.00;;;18.34;100.00
6899;BME280;3488;42.616;23.350;2023-09-08T02:25:30;63893.47;;;18.26;100.00
6899;BME280;3488;42.616;23.350;2023-09-08T02:27:57;63890.94;;;18.31;100.00
6899;BME280;3488;42.616;23.350;2023-09-08T02:30:24;63890.38;;;18.28;100.00
6899;BME280;3488;42.616;23.350;2023-09-08T02:32:51;63889.31;;;18.24;100.00
6899;BME280;3488;42.616;23.350;2023-09-08T02:35:19;63886.22;;;18.24;100.00
6899;BME280;3488;42.616;23.350;2023-09-08T02:37:46;63888.88;;;18.29;100.00
6899;BME280;3488;42.616;23.350;2023-09-08T02:40:13;63890.91;;;18.28;99.89
6899;BME280;3488;42.616;23.350;2023-09-08T02:42:39;63892.53;;;18.35;100.00
6899;BME280;3488;42.616;23.350;2023-09-08T02:45:07;63886.78;;;18.27;98.94
6899;BME280;3488;42.616;23.350;2023-09-08T02:47:34;63889.38;;;18.29;98.22
6899;BME280;3488;42.616;23.350;2023-09-08T02:50:01;63885.16;;;18.20;99.78
6899;BME280;3488;42.616;23.350;2023-09-08T02:52:31;63881.53;;;18.17;98.64
6899;BME280;3488;42.616;23.350;2023-09-08T02:54:58;63889.88;;;18.27;97.70
6899;BME280;3488;42.616;23.350;2023-09-08T02:57:25;63880.03;;;18.23;98.49
6899;BME280;3488;42.616;23.350;2023-09-08T02:59:51;63872.69;;;18.11;100.00
6899;BME280;3488;42.616;23.350;2023-09-08T03:02:21;63861.69;;;17.95;100.00
6899;BME280;3488;42.616;23.350;2023-09-08T03:04:48;63851.28;;;17.88;100.00
6899;BME280;3488;42.616;23.350;2023-09-08T03:07:15;63847.19;;;17.89;100.00
6899;BME280;3488;42.616;23.350;2023-09-08T03:09:43;63826.81;;;17.64;100.00
6899;BME280;3488;42.616;23.350;2023-09-08T03:12:10;63813.38;;;17.59;100.00
6899;BME280;3488;42.616;23.350;2023-09-08T03:14:37;63809.19;;;17.52;100.00
6899;BME280;3488;42.616;23.350;2023-09-08T03:17:04;63802.34;;;17.41;100.00
6899;BME280;3488;42.616;23.350;2023-09-08T03:19:31;63791.47;;;17.35;100.00
6899;BME280;3488;42.616;23.350;2023-09-08T03:21:58;63784.69;;;17.28;100.00
6899;BME280;3488;42.616;23.350;2023-09-08T03:24:25;63767.00;;;17.11;100.00
6899;BME280;3488;42.616;23.350;2023-09-08T03:26:53;63763.84;;;17.06;100.00
6899;BME280;3488;42.616;23.350;2023-09-08T03:29:20;63758.66;;;17.01;100.00
6899;BME280;3488;42.616;23.350;2023-09-08T03:31:47;63753.94;;;16.96;100.00
6899;BME280;3488;42.616;23.350;2023-09-08T03:34:14;63748.25;;;16.91;100.00
6899;BME280;3488;42.616;23.350;2023-09-08T03:36:40;63746.13;;;16.86;100.00
6899;BME280;3488;42.616;23.350;2023-09-08T03:39:07;63740.91;;;16.79;100.00
6899;BME280;3488;42.616;23.350;2023-09-08T03:41:35;63729.50;;;16.73;100.00
6899;BME280;3488;42.616;23.350;2023-09-08T03:44:03;63726.38;;;16.70;100.00
6899;BME280;3488;42.616;23.350;2023-09-08T03:46:30;63724.84;;;16.71;100.00
6899;BME280;3488;42.616;23.350;2023-09-08T03:48:57;63721.69;;;16.65;100.00
6899;BME280;3488;42.616;23.350;2023-09-08T03:51:26;63714.97;;;16.61;100.00
6899;BME280;3488;42.616;23.350;2023-09-08T03:53:53;63716.47;;;16.58;100.00
6899;BME280;3488;42.616;23.350;2023-09-08T03:56:20;63706.13;;;16.53;100.00
6899;BME280;3488;42.616;23.350;2023-09-08T03:58:47;63701.97;;;16.49;100.00
6899;BME280;3488;42.616;23.350;2023-09-08T04:01:16;63700.88;;;16.45;100.00
6899;BME280;3488;42.616;23.350;2023-09-08T04:03:43;63701.97;;;16.49;100.00
6899;BME280;3488;42.616;23.350;2023-09-08T04:06:10;63700.94;;;16.48;100.00
6899;BME280;3488;42.616;23.350;2023-09-08T04:08:37;63699.91;;;16.49;100.00
6899;BME280;3488;42.616;23.350;2023-09-08T04:11:04;63698.28;;;16.45;100.00
6899;BME280;3488;42.616;23.350;2023-09-08T04:13:30;63706.59;;;16.51;100.00
6899;BME280;3488;42.616;23.350;2023-09-08T04:15:58;63702.50;;;16.52;100.00
6899;BME280;3488;42.616;23.350;2023-09-08T04:18:26;63697.81;;;16.47;100.00
6899;BME280;3488;42.616;23.350;2023-09-08T04:20:53;63703.44;;;16.45;100.00
6899;BME280;3488;42.616;23.350;2023-09-08T04:23:20;63699.38;;;16.46;100.00
6899;BME280;3488;42.616;23.350;2023-09-08T04:25:47;63699.88;;;16.47;100.00
6899;BME280;3488;42.616;23.350;2023-09-08T04:28:14;63706.63;;;16.53;100.00
6899;BME280;3488;42.616;23.350;2023-09-08T04:30:40;63705.59;;;16.52;100.00
6899;BME280;3488;42.616;23.350;2023-09-08T04:33:07;63710.78;;;16.57;100.00
6899;BME280;3488;42.616;23.350;2023-09-08T04:35:36;63710.28;;;16.57;100.00
6899;BME280;3488;42.616;23.350;2023-09-08T04:38:03;63720.66;;;16.64;100.00
6899;BME280;3488;42.616;23.350;2023-09-08T04:40:30;63731.06;;;16.74;100.00
6899;BME280;3488;42.616;23.350;2023-09-08T04:42:57;63736.28;;;16.82;100.00
6899;BME280;3488;42.616;23.350;2023-09-08T04:45:24;63746.69;;;16.89;100.00
6899;BME280;3488;42.616;23.350;2023-09-08T04:47:51;63763.31;;;17.03;100.00
6899;BME280;3488;42.616;23.350;2023-09-08T04:50:18;63767.50;;;17.12;100.00
6899;BME280;3488;42.616;23.350;2023-09-08T04:52:46;63781.59;;;17.28;100.00
6899;BME280;3488;42.616;23.350;2023-09-08T04:55:13;63801.84;;;17.43;100.00
6899;BME280;3488;42.616;23.350;2023-09-08T04:57:40;63813.31;;;17.54;100.00
6899;BME280;3488;42.616;23.350;2023-09-08T05:00:08;63824.78;;;17.67;100.00
6899;BME280;3488;42.616;23.350;2023-09-08T05:02:35;63837.81;;;17.80;100.00
6899;BME280;3488;42.616;23.350;2023-09-08T05:05:02;63851.91;;;17.96;100.00
6899;BME280;3488;42.616;23.350;2023-09-08T05:07:30;63866.97;;;18.08;100.00
6899;BME280;3488;42.616;23.350;2023-09-08T05:09:58;63889.31;;;18.24;100.00
6899;BME280;3488;42.616;23.350;2023-09-08T05:12:25;63903.44;;;18.40;100.00
6899;BME280;3488;42.616;23.350;2023-09-08T05:14:52;63919.06;;;18.56;100.00
6899;BME280;3488;42.616;23.350;2023-09-08T05:17:23;63929.53;;;18.68;100.00
6899;BME280;3488;42.616;23.350;2023-09-08T05:19:50;63949.81;;;18.85;100.00
6899;BME280;3488;42.616;23.350;2023-09-08T05:22:17;63965.94;;;18.98;100.00
6899;BME280;3488;42.616;23.350;2023-09-08T05:24:44;63966.03;;;19.06;100.00
6899;BME280;3488;42.616;23.350;2023-09-08T05:27:12;63981.66;;;19.21;100.00
6899;BME280;3488;42.616;23.350;2023-09-08T05:29:39;63997.81;;;19.34;95.29
6899;BME280;3488;42.616;23.350;2023-09-08T05:32:06;64007.72;;;19.43;92.08
6899;BME280;3488;42.616;23.350;2023-09-08T05:34:33;64019.22;;;19.57;89.56
6899;BME280;3488;42.616;23.350;2023-09-08T05:36:59;64028.59;;;19.66;87.96
6899;BME280;3488;42.616;23.350;2023-09-08T05:39:27;64043.16;;;19.75;85.32
6899;BME280;3488;42.616;23.350;2023-09-08T05:41:54;64056.75;;;19.91;85.66
6899;BME280;3488;42.616;23.350;2023-09-08T05:44:22;64077.56;;;20.06;85.09
6899;BME280;3488;42.616;23.350;2023-09-08T05:46:50;64078.09;;;20.09;79.20
6899;BME280;3488;42.616;23.350;2023-09-08T05:49:18;64077.03;;;20.05;76.19
6899;BME280;3488;42.616;23.350;2023-09-08T05:51:45;64086.50;;;20.17;77.00
6899;BME280;3488;42.616;23.350;2023-09-08T05:54:12;64091.72;;;20.24;76.89
6899;BME280;3488;42.616;23.350;2023-09-08T05:56:39;64100.56;;;20.30;76.64
6899;BME280;3488;42.616;23.350;2023-09-08T05:59:06;64112.06;;;20.44;74.62
6899;BME280;3488;42.616;23.350;2023-09-08T06:01:34;64123.59;;;20.60;73.98
6899;BME280;3488;42.616;23.350;2023-09-08T06:04:03;64123.03;;;20.54;73.11
6899;BME280;3488;42.616;23.350;2023-09-08T06:06:30;64130.31;;;20.59;72.90
6899;BME280;3488;42.616;23.350;2023-09-08T06:08:56;64145.47;;;20.76;72.27
6899;BME280;3488;42.616;23.350;2023-09-08T06:11:23;64156.91;;;20.82;71.56
6899;BME280;3488;42.616;23.350;2023-09-08T06:13:50;64165.25;;;20.90;68.27
6899;BME280;3488;42.616;23.350;2023-09-08T06:16:18;64153.84;;;20.84;67.16
6899;BME280;3488;42.616;23.350;2023-09-08T06:18:46;64170.47;;;20.93;67.12
6899;BME280;3488;42.616;23.350;2023-09-08T06:21:13;64163.72;;;20.91;64.28
6899;BME280;3488;42.616;23.350;2023-09-08T06:23:40;64161.63;;;20.89;63.79
6899;BME280;3488;42.616;23.350;2023-09-08T06:26:07;64174.63;;;20.94;65.25
6899;BME280;3488;42.616;23.350;2023-09-08T06:28:34;64180.47;;;21.10;65.22
6899;BME280;3488;42.616;23.350;2023-09-08T06:31:01;64208.09;;;21.31;65.73
6899;BME280;3488;42.616;23.350;2023-09-08T06:33:27;64223.28;;;21.51;63.89
6899;BME280;3488;42.616;23.350;2023-09-08T06:35:56;64235.81;;;21.60;63.66
6899;BME280;3488;42.616;23.350;2023-09-08T06:38:23;64238.47;;;21.68;62.81
6899;BME280;3488;42.616;23.350;2023-09-08T06:40:50;64268.19;;;21.87;61.61
6899;BME280;3488;42.616;23.350;2023-09-08T06:43:18;64279.16;;;21.97;58.82
6899;BME280;3488;42.616;23.350;2023-09-08T06:45:47;64269.78;;;21.91;62.13
6899;BME280;3488;42.616;23.350;2023-09-08T06:48:14;64287.56;;;22.10;60.93
6899;BME280;3488;42.616;23.350;2023-09-08T06:50:41;64301.63;;;22.21;59.47
6899;BME280;3488;42.616;23.350;2023-09-08T06:53:09;64313.69;;;22.35;58.94
6899;BME280;3488;42.616;23.350;2023-09-08T06:55:38;64303.78;;;22.31;58.62
6899;BME280;3488;42.616;23.350;2023-09-08T06:58:05;64329.34;;;22.50;59.85
6899;BME280;3488;42.616;23.350;2023-09-08T07:00:31;64345.59;;;22.66;58.19
6899;BME280;3488;42.616;23.350;2023-09-08T07:02:58;64361.84;;;22.86;57.18
6899;BME280;3488;42.616;23.350;2023-09-08T07:05:25;64370.16;;;22.92;57.71
6899;BME280;3488;42.616;23.350;2023-09-08T07:07:52;64399.44;;;23.15;56.69
6899;BME280;3488;42.616;23.350;2023-09-08T07:10:20;64418.81;;;23.34;55.87
6899;BME280;3488;42.616;23.350;2023-09-08T07:12:47;64428.75;;;23.46;54.31
6899;BME280;3488;42.616;23.350;2023-09-08T07:15:15;64427.69;;;23.42;53.15
6899;BME280;3488;42.616;23.350;2023-09-08T07:17:42;64425.63;;;23.43;54.00
6899;BME280;3488;42.616;23.350;2023-09-08T07:20:09;64430.31;;;23.47;52.89
6899;BME280;3488;42.616;23.350;2023-09-08T07:22:37;64429.28;;;23.46;53.84
6899;BME280;3488;42.616;23.350;2023-09-08T07:25:05;64454.91;;;23.71;53.72
6899;BME280;3488;42.616;23.350;2023-09-08T07:27:34;64476.34;;;23.89;52.52
6899;BME280;3488;42.616;23.350;2023-09-08T07:30:01;64489.47;;;24.02;52.08
6899;BME280;3488;42.616;23.350;2023-09-08T07:32:28;64500.44;;;24.15;51.12
6899;BME280;3488;42.616;23.350;2023-09-08T07:34:55;64512.47;;;24.21;50.35
6899;BME280;3488;42.616;23.350;2023-09-08T07:37:22;64502.03;;;24.16;50.66
6899;BME280;3488;42.616;23.350;2023-09-08T07:39:49;64490.53;;;24.05;50.93
6899;BME280;3488;42.616;23.350;2023-09-08T07:42:16;64460.66;;;23.74;50.84
6899;BME280;3488;42.616;23.350;2023-09-08T07:44:45;64462.75;;;23.76;51.17
6899;BME280;3488;42.616;23.350;2023-09-08T07:47:12;64476.38;;;23.94;51.76
6899;BME280;3488;42.616;23.350;2023-09-08T07:49:46;64483.69;;;23.96;51.04
6899;BME280;3488;42.616;23.350;2023-09-08T07:52:13;64434.50;;;23.51;52.58
6899;BME280;3488;42.616;23.350;2023-09-08T07:54:40;64455.44;;;23.71;52.89
6899;BME280;3488;42.616;23.350;2023-09-08T07:57:07;64480.03;;;23.97;52.24
6899;BME280;3488;42.616;23.350;2023-09-08T07:59:34;64498.88;;;24.13;51.14
6899;BME280;3488;42.616;23.350;2023-09-08T08:02:02;64542.34;;;24.55;50.29
6899;BME280;3488;42.616;23.350;2023-09-08T08:04:30;64573.78;;;24.87;48.45
6899;BME280;3488;42.616;23.350;2023-09-08T08:06:56;64597.88;;;25.10;46.80
6899;BME280;3488;42.616;23.350;2023-09-08T08:09:23;64617.25;;;25.29;47.77
6899;BME280;3488;42.616;23.350;2023-09-08T08:11:50;64633.50;;;25.40;45.92
6899;BME280;3488;42.616;23.350;2023-09-08T08:14:17;64635.59;;;25.47;46.32
6899;BME280;3488;42.616;23.350;2023-09-08T08:16:44;64636.66;;;25.45;46.24
6899;BME280;3488;42.616;23.350;2023-09-08T08:19:13;64599.94;;;25.10;45.96
6899;BME280;3488;42.616;23.350;2023-09-08T08:21:39;64589.47;;;25.02;46.21
6899;BME280;3488;42.616;23.350;2023-09-08T08:24:07;64566.44;;;24.78;46.40
6899;BME280;3488;42.616;23.350;2023-09-08T08:26:35;64552.25;;;24.59;48.11
6899;BME280;3488;42.616;23.350;2023-09-08T08:29:02;64510.41;;;24.27;47.57
6899;BME280;3488;42.616;23.350;2023-09-08T08:31:29;64511.94;;;24.23;47.85
6899;BME280;3488;42.616;23.350;2023-09-08T08:33:58;64476.34;;;23.86;47.60
6899;BME280;3488;42.616;23.350;2023-09-08T08:36:27;64460.66;;;23.74;49.11
6899;BME280;3488;42.616;23.350;2023-09-08T08:38:54;64443.38;;;23.57;48.07
6899;BME280;3488;42.616;23.350;2023-09-08T08:41:22;64450.19;;;23.64;47.94
6899;BME280;3488;42.616;23.350;2023-09-08T08:43:50;64440.78;;;23.57;49.07
6899;BME280;3488;42.616;23.350;2023-09-08T08:46:18;64445.97;;;23.57;49.97
6899;BME280;3488;42.616;23.350;2023-09-08T08:48:48;64446.03;;;23.62;50.47
6899;BME280;3488;42.616;23.350;2023-09-08T08:51:20;64458.56;;;23.72;49.68
6899;BME280;3488;42.616;23.350;2023-09-08T08:53:50;64470.59;;;23.83;48.17
6899;BME280;3488;42.616;23.350;2023-09-08T08:56:17;64470.09;;;23.85;47.97
6899;BME280;3488;42.616;23.350;2023-09-08T08:58:45;64485.78;;;23.98;47.49
6899;BME280;3488;42.616;23.350;2023-09-08T09:01:12;64514.06;;;24.25;47.25
6899;BME280;3488;42.616;23.350;2023-09-08T09:03:41;64526.09;;;24.39;46.68
6899;BME280;3488;42.616;23.350;2023-09-08T09:06:09;64535.00;;;24.48;47.12
6899;BME280;3488;42.616;23.350;2023-09-08T09:08:37;64552.28;;;24.64;47.37
6899;BME280;3488;42.616;23.350;2023-09-08T09:11:07;64575.84;;;24.87;45.15
6899;BME280;3488;42.616;23.350;2023-09-08T09:13:35;64598.91;;;25.06;43.88
6899;BME280;3488;42.616;23.350;2023-09-08T09:16:02;64618.28;;;25.23;44.44
6899;BME280;3488;42.616;23.350;2023-09-08T09:18:33;64647.09;;;25.48;44.39
6899;BME280;3488;42.616;23.350;2023-09-08T09:21:01;64667.53;;;25.72;45.26
6899;BME280;3488;42.616;23.350;2023-09-08T09:23:29;64697.41;;;26.01;43.87
6899;BME280;3488;42.616;23.350;2023-09-08T09:25:57;64699.03;;;26.05;43.53
6899;BME280;3488;42.616;23.350;2023-09-08T09:28:26;64717.91;;;26.23;43.13
6899;BME280;3488;42.616;23.350;2023-09-08T09:30:55;64696.94;;;26.05;41.79
6899;BME280;3488;42.616;23.350;2023-09-08T09:33:23;64725.75;;;26.36;41.10
6899;BME280;3488;42.616;23.350;2023-09-08T09:35:51;64728.38;;;26.33;42.66
6899;BME280;3488;42.616;23.350;2023-09-08T09:38:18;64749.34;;;26.53;42.05
6899;BME280;3488;42.616;23.350;2023-09-08T09:40:46;64755.09;;;26.59;42.00
6899;BME280;3488;42.616;23.350;2023-09-08T09:43:15;64779.25;;;26.79;41.77
6899;BME280;3488;42.616;23.350;2023-09-08T09:45:43;64724.72;;;26.35;42.79
6899;BME280;3488;42.616;23.350;2023-09-08T09:48:10;64695.38;;;26.04;42.05
6899;BME280;3488;42.616;23.350;2023-09-08T09:50:39;64732.00;;;26.29;42.09
6899;BME280;3488;42.616;23.350;2023-09-08T09:53:11;64703.19;;;26.04;43.49
6899;BME280;3488;42.616;23.350;2023-09-08T09:55:39;64665.97;;;25.71;43.67
6899;BME280;3488;42.616;23.350;2023-09-08T09:58:07;64671.75;;;25.79;44.18
6899;BME280;3488;42.616;23.350;2023-09-08T10:00:36;64703.22;;;26.11;43.97
6899;BME280;3488;42.616;23.350;2023-09-08T10:03:05;64722.59;;;26.28;41.25
6899;BME280;3488;42.616;23.350;2023-09-08T10:05:33;64735.69;;;26.38;42.65
6899;BME280;3488;42.616;23.350;2023-09-08T10:08:00;64779.78;;;26.80;42.63
6899;BME280;3488;42.616;23.350;2023-09-08T10:10:29;64790.78;;;26.90;41.46
6899;BME280;3488;42.616;23.350;2023-09-08T10:13:02;64783.44;;;26.86;41.16
6899;BME280;3488;42.616;23.350;2023-09-08T10:15:31;64795.50;;;26.95;41.59
6899;BME280;3488;42.616;23.350;2023-09-08T10:17:59;64815.97;;;27.17;41.16
6899;BME280;3488;42.616;23.350;2023-09-08T10:20:32;64815.44;;;27.16;40.99
6899;BME280;3488;42.616;23.350;2023-09-08T10:23:04;64817.03;;;27.20;41.34
6899;BME280;3488;42.616;23.350;2023-09-08T10:25:37;64768.25;;;26.71;41.50
6899;BME280;3488;42.616;23.350;2023-09-08T10:28:05;64738.34;;;26.40;42.01
6899;BME280;3488;42.616;23.350;2023-09-08T10:30:33;64743.03;;;26.45;41.89
6899;BME280;3488;42.616;23.350;2023-09-08T10:33:02;64723.13;;;26.31;41.69
6899;BME280;3488;42.616;23.350;2023-09-08T10:35:31;64738.31;;;26.35;39.42
6899;BME280;3488;42.616;23.350;2023-09-08T10:38:22;64749.88;;;26.54;41.08
6899;BME280;3488;42.616;23.350;2023-09-08T10:40:49;64738.31;;;26.43;42.03
6899;BME280;3488;42.616;23.350;2023-09-08T10:43:18;64744.59;;;26.46;42.04
6899;BME280;3488;42.616;23.350;2023-09-08T10:45:45;64753.53;;;26.57;42.60
6899;BME280;3488;42.616;23.350;2023-09-08T10:48:13;64726.78;;;26.29;41.31
6899;BME280;3488;42.616;23.350;2023-09-08T10:50:42;64751.94;;;26.53;41.09
6899;BME280;3488;42.616;23.350;2023-09-08T10:53:14;64769.81;;;26.75;42.01
6899;BME280;3488;42.616;23.350;2023-09-08T10:55:42;64790.78;;;26.93;40.98
6899;BME280;3488;42.616;23.350;2023-09-08T10:58:18;64800.22;;;27.02;41.22
6899;BME280;3488;42.616;23.350;2023-09-08T11:00:46;64819.63;;;27.20;40.37
6899;BME280;3488;42.616;23.350;2023-09-08T11:03:25;64829.06;;;27.27;40.23
6899;BME280;3488;42.616;23.350;2023-09-08T11:05:55;64810.69;;;27.09;40.46
6899;BME280;3488;42.616;23.350;2023-09-08T11:08:22;64822.25;;;27.18;40.03
6899;BME280;3488;42.616;23.350;2023-09-08T11:10:50;64823.84;;;27.24;40.40
6899;BME280;3488;42.616;23.350;2023-09-08T11:13:17;64829.06;;;27.27;40.91
6899;BME280;3488;42.616;23.350;2023-09-08T11:15:44;64780.31;;;26.83;41.61
6899;BME280;3488;42.616;23.350;2023-09-08T11:18:11;64716.31;;;26.21;42.63
6899;BME280;3488;42.616;23.350;2023-09-08T11:20:39;64713.69;;;26.19;43.39
6899;BME280;3488;42.616;23.350;2023-09-08T11:23:07;64712.63;;;26.15;43.23
6899;BME280;3488;42.616;23.350;2023-09-08T11:25:35;64700.59;;;26.04;44.20
6899;BME280;3488;42.616;23.350;2023-09-08T11:28:04;64689.56;;;25.93;44.11
6899;BME280;3488;42.616;23.350;2023-09-08T11:30:33;64678.03;;;25.80;44.69
6899;BME280;3488;42.616;23.350;2023-09-08T11:33:01;64671.22;;;25.78;45.20
6899;BME280;3488;42.616;23.350;2023-09-08T11:35:31;64679.63;;;25.86;45.21
6899;BME280;3488;42.616;23.350;2023-09-08T11:37:59;64701.13;;;26.09;44.99
6899;BME280;3488;42.616;23.350;2023-09-08T11:40:31;64706.88;;;26.12;44.54
6899;BME280;3488;42.616;23.350;2023-09-08T11:43:00;64712.13;;;26.17;43.74
6899;BME280;3488;42.616;23.350;2023-09-08T11:45:27;64711.56;;;26.14;43.83
6899;BME280;3488;42.616;23.350;2023-09-08T11:47:54;64725.75;;;26.28;43.73
6899;BME280;3488;42.616;23.350;2023-09-08T11:50:22;64759.28;;;26.60;44.02
6899;BME280;3488;42.616;23.350;2023-09-08T11:52:50;64757.22;;;26.61;44.14
6899;BME280;3488;42.616;23.350;2023-09-08T11:55:19;64754.59;;;26.58;43.22
6899;BME280;3488;42.616;23.350;2023-09-08T11:57:49;64752.47;;;26.56;43.07
6899;BME280;3488;42.616;23.350;2023-09-08T12:00:20;64754.06;;;26.60;43.95
6899;BME280;3488;42.616;23.350;2023-09-08T12:02:48;64776.09;;;26.76;43.45
6899;BME280;3488;42.616;23.350;2023-09-08T12:05:20;64792.34;;;26.94;43.53
6899;BME280;3488;42.616;23.350;2023-09-08T12:07:49;64795.50;;;26.95;42.71
6899;BME280;3488;42.616;23.350;2023-09-08T12:10:16;64758.22;;;26.57;42.50
6899;BME280;3488;42.616;23.350;2023-09-08T12:12:45;64769.28;;;26.72;43.02
6899;BME280;3488;42.616;23.350;2023-09-08T12:15:29;64794.97;;;26.94;42.56
6899;BME280;3488;42.616;23.350;2023-09-08T12:17:57;64789.72;;;26.89;42.56
6899;BME280;3488;42.616;23.350;2023-09-08T12:20:24;64826.44;;;27.27;41.91
6899;BME280;3488;42.616;23.350;2023-09-08T12:22:51;64869.50;;;27.68;43.50
6899;BME280;3488;42.616;23.350;2023-09-08T12:25:19;64893.66;;;27.91;41.86
6899;BME280;3488;42.616;23.350;2023-09-08T12:27:50;64901.00;;;27.98;41.21
6899;BME280;3488;42.616;23.350;2023-09-08T12:30:20;64876.81;;;27.70;40.80
6899;BME280;3488;42.616;23.350;2023-09-08T12:32:50;64857.94;;;27.55;42.10
6899;BME280;3488;42.616;23.350;2023-09-08T12:35:21;64862.16;;;27.59;41.09
6899;BME280;3488;42.616;23.350;2023-09-08T12:37:53;64874.19;;;27.65;40.97
6899;BME280;3488;42.616;23.350;2023-09-08T12:40:21;64871.06;;;27.67;40.48
6899;BME280;3488;42.616;23.350;2023-09-08T12:42:48;64865.31;;;27.64;40.88
6899;BME280;3488;42.616;23.350;2023-09-08T12:45:15;64857.44;;;27.57;40.58
6899;BME280;3488;42.616;23.350;2023-09-08T12:47:44;64832.25;;;27.30;40.21
6899;BME280;3488;42.616;23.350;2023-09-08T12:50:10;64812.31;;;27.18;41.50
6899;BME280;3488;42.616;23.350;2023-09-08T12:52:38;64842.19;;;27.35;40.80
6899;BME280;3488;42.616;23.350;2023-09-08T12:55:05;64822.25;;;27.23;40.73
6899;BME280;3488;42.616;23.350;2023-09-08T12:57:32;64829.09;;;27.29;40.57
6899;BME280;3488;42.616;23.350;2023-09-08T13:00:00;64836.94;;;27.32;39.92
6899;BME280;3488;42.616;23.350;2023-09-08T13:02:27;64830.16;;;27.33;39.95
6899;BME280;3488;42.616;23.350;2023-09-08T13:04:55;64835.91;;;27.36;39.84
6899;BME280;3488;42.616;23.350;2023-09-08T13:07:23;64820.16;;;27.23;39.77
6899;BME280;3488;42.616;23.350;2023-09-08T13:09:51;64829.06;;;27.27;40.56
6899;BME280;3488;42.616;23.350;2023-09-08T13:12:18;64837.47;;;27.33;40.15